sensor_id;sensor_type;location;lat;lon;timestamp;temperature;humidity
67529;DHT22;54366;51.980;5.856;2022-08-19T00:01:54;20.70;74.90
67529;DHT22;54366;51.980;5.856;2022-08-19T00:04:24;20.70;75.10
67529;DHT22;54366;51.980;5.856;2022-08-19T00:06:51;20.60;75.10
67529;DHT22;54366;51.980;5.856;2022-08-19T00:09:20;20.60;74.70
67529;DHT22;54366;51.980;5.856;2022-08-19T00:11:46;20.60;74.70
67529;DHT22;54366;51.980;5.856;2022-08-19T00:14:15;20.60;74.90
67529;DHT22;54366;51.980;5.856;2022-08-19T00:16:43;20.50;75.00
67529;DHT22;54366;51.980;5.856;2022-08-19T00:19:09;20.50;75.20
67529;DHT22;54366;51.980;5.856;2022-08-19T00:21:36;20.40;75.20
67529;DHT22;54366;51.980;5.856;2022-08-19T00:24:09;20.50;75.40
67529;DHT22;54366;51.980;5.856;2022-08-19T00:26:37;20.40;75.30
67529;DHT22;54366;51.980;5.856;2022-08-19T00:29:05;20.40;75.20
67529;DHT22;54366;51.980;5.856;2022-08-19T00:31:32;20.40;75.30
67529;DHT22;54366;51.980;5.856;2022-08-19T00:33:58;20.30;75.30
67529;DHT22;54366;51.980;5.856;2022-08-19T00:36:25;20.30;75.40
67529;DHT22;54366;51.980;5.856;2022-08-19T00:38:51;20.30;75.20
67529;DHT22;54366;51.980;5.856;2022-08-19T00:41:20;20.20;75.20
67529;DHT22;54366;51.980;5.856;2022-08-19T00:44:03;20.20;75.50
67529;DHT22;54366;51.980;5.856;2022-08-19T00:46:31;20.10;75.90
67529;DHT22;54366;51.980;5.856;2022-08-19T00:48:59;20.10;76.10
67529;DHT22;54366;51.980;5.856;2022-08-19T00:51:27;20.10;76.00
67529;DHT22;54366;51.980;5.856;2022-08-19T00:53:57;20.10;75.90
67529;DHT22;54366;51.980;5.856;2022-08-19T00:56:25;20.10;76.20
67529;DHT22;54366;51.980;5.856;2022-08-19T00:58:55;20.00;76.20
67529;DHT22;54366;51.980;5.856;2022-08-19T01:01:22;20.00;76.20
67529;DHT22;54366;51.980;5.856;2022-08-19T01:03:48;20.00;76.30
67529;DHT22;54366;51.980;5.856;2022-08-19T01:06:14;20.00;76.30
67529;DHT22;54366;51.980;5.856;2022-08-19T01:08:40;20.00;76.40
67529;DHT22;54366;51.980;5.856;2022-08-19T01:11:07;20.00;76.40
67529;DHT22;54366;51.980;5.856;2022-08-19T01:13:36;19.90;76.40
67529;DHT22;54366;51.980;5.856;2022-08-19T01:16:08;19.90;76.50
67529;DHT22;54366;51.980;5.856;2022-08-19T01:18:41;19.90;76.50
67529;DHT22;54366;51.980;5.856;2022-08-19T01:21:36;19.90;76.50
67529;DHT22;54366;51.980;5.856;2022-08-19T01:24:03;19.80;76.60
67529;DHT22;54366;51.980;5.856;2022-08-19T01:26:30;19.80;76.60
67529;DHT22;54366;51.980;5.856;2022-08-19T01:28:58;19.80;76.70
67529;DHT22;54366;51.980;5.856;2022-08-19T01:31:27;19.80;76.60
67529;DHT22;54366;51.980;5.856;2022-08-19T01:33:57;19.80;76.30
67529;DHT22;54366;51.980;5.856;2022-08-19T01:38:57;19.70;77.20
67529;DHT22;54366;51.980;5.856;2022-08-19T01:41:24;19.70;76.60
67529;DHT22;54366;51.980;5.856;2022-08-19T01:43:51;19.70;76.40
67529;DHT22;54366;51.980;5.856;2022-08-19T01:46:19;19.70;76.50
67529;DHT22;54366;51.980;5.856;2022-08-19T01:48:46;19.60;76.60
67529;DHT22;54366;51.980;5.856;2022-08-19T01:51:12;19.60;76.90
67529;DHT22;54366;51.980;5.856;2022-08-19T01:53:39;19.60;77.00
67529;DHT22;54366;51.980;5.856;2022-08-19T01:56:08;19.60;77.10
67529;DHT22;54366;51.980;5.856;2022-08-19T01:58:39;19.60;77.40
67529;DHT22;54366;51.980;5.856;2022-08-19T02:01:07;19.60;77.50
67529;DHT22;54366;51.980;5.856;2022-08-19T02:03:33;19.60;77.30
67529;DHT22;54366;51.980;5.856;2022-08-19T02:06:02;19.60;77.30
67529;DHT22;54366;51.980;5.856;2022-08-19T02:08:33;19.60;77.40
67529;DHT22;54366;51.980;5.856;2022-08-19T02:11:01;19.60;77.60
67529;DHT22;54366;51.980;5.856;2022-08-19T02:13:27;19.60;77.60
67529;DHT22;54366;51.980;5.856;2022-08-19T02:15:54;19.60;77.80
67529;DHT22;54366;51.980;5.856;2022-08-19T02:18:20;19.70;77.90
67529;DHT22;54366;51.980;5.856;2022-08-19T02:20:47;19.70;77.80
67529;DHT22;54366;51.980;5.856;2022-08-19T02:23:14;19.70;77.80
67529;DHT22;54366;51.980;5.856;2022-08-19T02:25:45;19.80;77.40
67529;DHT22;54366;51.980;5.856;2022-08-19T02:28:12;19.80;77.10
67529;DHT22;54366;51.980;5.856;2022-08-19T02:30:40;19.80;77.30
67529;DHT22;54366;51.980;5.856;2022-08-19T02:33:07;19.80;77.60
67529;DHT22;54366;51.980;5.856;2022-08-19T02:35:33;19.80;77.60
67529;DHT22;54366;51.980;5.856;2022-08-19T02:38:00;19.80;77.20
67529;DHT22;54366;51.980;5.856;2022-08-19T02:40:50;19.80;77.40
67529;DHT22;54366;51.980;5.856;2022-08-19T02:43:18;19.80;77.60
67529;DHT22;54366;51.980;5.856;2022-08-19T02:45:46;19.80;77.70
67529;DHT22;54366;51.980;5.856;2022-08-19T02:48:16;19.80;77.60
67529;DHT22;54366;51.980;5.856;2022-08-19T02:50:43;19.80;77.70
67529;DHT22;54366;51.980;5.856;2022-08-19T02:53:10;19.80;77.20
67529;DHT22;54366;51.980;5.856;2022-08-19T02:55:43;19.70;77.30
67529;DHT22;54366;51.980;5.856;2022-08-19T02:58:09;19.70;77.20
67529;DHT22;54366;51.980;5.856;2022-08-19T03:00:36;19.70;77.20
67529;DHT22;54366;51.980;5.856;2022-08-19T03:03:08;19.70;77.40
67529;DHT22;54366;51.980;5.856;2022-08-19T03:05:34;19.60;77.00
67529;DHT22;54366;51.980;5.856;2022-08-19T03:08:00;19.60;77.10
67529;DHT22;54366;51.980;5.856;2022-08-19T03:10:27;19.60;77.50
67529;DHT22;54366;51.980;5.856;2022-08-19T03:12:53;19.60;77.60
67529;DHT22;54366;51.980;5.856;2022-08-19T03:15:20;19.60;77.50
67529;DHT22;54366;51.980;5.856;2022-08-19T03:17:46;19.50;77.60
67529;DHT22;54366;51.980;5.856;2022-08-19T03:20:12;19.50;77.80
67529;DHT22;54366;51.980;5.856;2022-08-19T03:22:39;19.50;77.80
67529;DHT22;54366;51.980;5.856;2022-08-19T03:25:05;19.50;77.90
67529;DHT22;54366;51.980;5.856;2022-08-19T03:27:31;19.40;77.90
67529;DHT22;54366;51.980;5.856;2022-08-19T03:29:58;19.40;77.90
67529;DHT22;54366;51.980;5.856;2022-08-19T03:32:25;19.40;77.90
67529;DHT22;54366;51.980;5.856;2022-08-19T03:34:51;19.40;78.10
67529;DHT22;54366;51.980;5.856;2022-08-19T03:37:18;19.40;78.00
67529;DHT22;54366;51.980;5.856;2022-08-19T03:39:44;19.40;78.00
67529;DHT22;54366;51.980;5.856;2022-08-19T03:42:11;19.40;77.90
67529;DHT22;54366;51.980;5.856;2022-08-19T03:44:38;19.40;77.90
67529;DHT22;54366;51.980;5.856;2022-08-19T03:47:05;19.30;77.70
67529;DHT22;54366;51.980;5.856;2022-08-19T03:49:32;19.30;77.70
67529;DHT22;54366;51.980;5.856;2022-08-19T03:52:01;19.30;77.90
67529;DHT22;54366;51.980;5.856;2022-08-19T03:54:28;19.30;78.00
67529;DHT22;54366;51.980;5.856;2022-08-19T03:56:56;19.30;78.20
67529;DHT22;54366;51.980;5.856;2022-08-19T03:59:32;19.30;78.20
67529;DHT22;54366;51.980;5.856;2022-08-19T04:02:01;19.30;78.40
67529;DHT22;54366;51.980;5.856;2022-08-19T04:04:29;19.30;78.40
67529;DHT22;54366;51.980;5.856;2022-08-19T04:06:56;19.30;78.60
67529;DHT22;54366;51.980;5.856;2022-08-19T04:09:22;19.30;78.60
67529;DHT22;54366;51.980;5.856;2022-08-19T04:11:51;19.30;78.80
67529;DHT22;54366;51.980;5.856;2022-08-19T04:14:24;19.30;78.80
67529;DHT22;54366;51.980;5.856;2022-08-19T04:16:51;19.30;78.70
67529;DHT22;54366;51.980;5.856;2022-08-19T04:19:18;19.30;78.70
67529;DHT22;54366;51.980;5.856;2022-08-19T04:21:47;19.20;78.40
67529;DHT22;54366;51.980;5.856;2022-08-19T04:24:14;19.20;78.30
67529;DHT22;54366;51.980;5.856;2022-08-19T04:26:41;19.20;78.30
67529;DHT22;54366;51.980;5.856;2022-08-19T04:29:16;19.10;77.90
67529;DHT22;54366;51.980;5.856;2022-08-19T04:31:44;19.10;77.90
67529;DHT22;54366;51.980;5.856;2022-08-19T04:34:13;19.10;77.90
67529;DHT22;54366;51.980;5.856;2022-08-19T04:36:42;19.00;77.90
67529;DHT22;54366;51.980;5.856;2022-08-19T04:39:16;18.90;77.80
67529;DHT22;54366;51.980;5.856;2022-08-19T04:41:44;18.90;78.00
67529;DHT22;54366;51.980;5.856;2022-08-19T04:44:33;18.90;78.20
67529;DHT22;54366;51.980;5.856;2022-08-19T04:47:00;18.80;78.20
67529;DHT22;54366;51.980;5.856;2022-08-19T04:49:26;18.80;78.20
67529;DHT22;54366;51.980;5.856;2022-08-19T04:51:54;18.80;78.20
67529;DHT22;54366;51.980;5.856;2022-08-19T04:54:23;18.80;78.30
67529;DHT22;54366;51.980;5.856;2022-08-19T04:56:52;18.80;78.40
67529;DHT22;54366;51.980;5.856;2022-08-19T04:59:19;18.80;78.50
67529;DHT22;54366;51.980;5.856;2022-08-19T05:01:46;18.70;78.60
67529;DHT22;54366;51.980;5.856;2022-08-19T05:04:19;18.80;78.70
67529;DHT22;54366;51.980;5.856;2022-08-19T05:06:48;18.70;78.60
67529;DHT22;54366;51.980;5.856;2022-08-19T05:09:15;18.80;78.80
67529;DHT22;54366;51.980;5.856;2022-08-19T05:11:42;18.70;78.60
67529;DHT22;54366;51.980;5.856;2022-08-19T05:14:09;18.70;78.60
67529;DHT22;54366;51.980;5.856;2022-08-19T05:16:36;18.70;78.60
67529;DHT22;54366;51.980;5.856;2022-08-19T05:19:03;18.70;78.80
67529;DHT22;54366;51.980;5.856;2022-08-19T05:21:48;18.70;78.60
67529;DHT22;54366;51.980;5.856;2022-08-19T05:24:32;18.80;78.80
67529;DHT22;54366;51.980;5.856;2022-08-19T05:27:00;18.80;78.80
67529;DHT22;54366;51.980;5.856;2022-08-19T05:29:29;18.80;79.00
67529;DHT22;54366;51.980;5.856;2022-08-19T05:31:58;18.80;79.20
67529;DHT22;54366;51.980;5.856;2022-08-19T05:34:26;18.80;79.30
67529;DHT22;54366;51.980;5.856;2022-08-19T05:36:56;18.80;79.40
67529;DHT22;54366;51.980;5.856;2022-08-19T05:39:25;18.80;79.50
67529;DHT22;54366;51.980;5.856;2022-08-19T05:41:55;18.90;79.80
67529;DHT22;54366;51.980;5.856;2022-08-19T05:44:29;19.00;79.70
67529;DHT22;54366;51.980;5.856;2022-08-19T05:47:01;19.00;79.70
67529;DHT22;54366;51.980;5.856;2022-08-19T05:49:28;19.00;79.50
67529;DHT22;54366;51.980;5.856;2022-08-19T05:51:55;19.10;79.60
67529;DHT22;54366;51.980;5.856;2022-08-19T05:54:23;19.20;79.90
67529;DHT22;54366;51.980;5.856;2022-08-19T05:56:50;19.20;79.90
67529;DHT22;54366;51.980;5.856;2022-08-19T05:59:18;19.20;79.90
67529;DHT22;54366;51.980;5.856;2022-08-19T06:01:49;19.20;80.10
67529;DHT22;54366;51.980;5.856;2022-08-19T06:04:18;19.30;80.50
67529;DHT22;54366;51.980;5.856;2022-08-19T06:06:47;19.30;80.30
67529;DHT22;54366;51.980;5.856;2022-08-19T06:09:13;19.40;80.20
67529;DHT22;54366;51.980;5.856;2022-08-19T06:14:12;19.50;80.30
67529;DHT22;54366;51.980;5.856;2022-08-19T06:16:40;19.50;80.40
67529;DHT22;54366;51.980;5.856;2022-08-19T06:19:09;19.50;80.50
67529;DHT22;54366;51.980;5.856;2022-08-19T06:21:39;19.60;80.70
67529;DHT22;54366;51.980;5.856;2022-08-19T06:24:09;19.70;80.70
67529;DHT22;54366;51.980;5.856;2022-08-19T06:26:38;19.70;80.20
67529;DHT22;54366;51.980;5.856;2022-08-19T06:29:06;19.80;80.10
67529;DHT22;54366;51.980;5.856;2022-08-19T06:31:34;19.80;80.40
67529;DHT22;54366;51.980;5.856;2022-08-19T06:34:03;19.90;80.90
67529;DHT22;54366;51.980;5.856;2022-08-19T06:36:36;20.00;80.50
67529;DHT22;54366;51.980;5.856;2022-08-19T06:39:08;20.10;80.40
67529;DHT22;54366;51.980;5.856;2022-08-19T06:41:38;20.20;80.20
67529;DHT22;54366;51.980;5.856;2022-08-19T06:44:05;20.20;80.20
67529;DHT22;54366;51.980;5.856;2022-08-19T06:46:32;20.30;80.00
67529;DHT22;54366;51.980;5.856;2022-08-19T06:48:58;20.40;79.90
67529;DHT22;54366;51.980;5.856;2022-08-19T06:51:25;20.40;79.60
67529;DHT22;54366;51.980;5.856;2022-08-19T06:53:53;20.50;79.20
67529;DHT22;54366;51.980;5.856;2022-08-19T06:56:23;20.50;79.50
67529;DHT22;54366;51.980;5.856;2022-08-19T06:58:51;20.60;79.90
67529;DHT22;54366;51.980;5.856;2022-08-19T07:01:19;20.60;79.70
67529;DHT22;54366;51.980;5.856;2022-08-19T07:03:46;20.70;79.50
67529;DHT22;54366;51.980;5.856;2022-08-19T07:06:15;20.70;79.20
67529;DHT22;54366;51.980;5.856;2022-08-19T07:08:47;20.80;79.20
67529;DHT22;54366;51.980;5.856;2022-08-19T07:11:16;20.80;78.90
67529;DHT22;54366;51.980;5.856;2022-08-19T07:13:44;20.90;78.70
67529;DHT22;54366;51.980;5.856;2022-08-19T07:16:14;20.90;79.20
67529;DHT22;54366;51.980;5.856;2022-08-19T07:18:41;20.90;78.70
67529;DHT22;54366;51.980;5.856;2022-08-19T07:21:11;20.90;78.70
67529;DHT22;54366;51.980;5.856;2022-08-19T07:23:39;21.00;78.60
67529;DHT22;54366;51.980;5.856;2022-08-19T07:26:07;21.00;78.50
67529;DHT22;54366;51.980;5.856;2022-08-19T07:28:34;21.00;78.50
67529;DHT22;54366;51.980;5.856;2022-08-19T07:31:01;21.00;78.20
67529;DHT22;54366;51.980;5.856;2022-08-19T07:33:29;21.10;78.00
67529;DHT22;54366;51.980;5.856;2022-08-19T07:35:58;21.10;77.80
67529;DHT22;54366;51.980;5.856;2022-08-19T07:38:25;21.10;77.40
67529;DHT22;54366;51.980;5.856;2022-08-19T07:40:51;21.20;77.10
67529;DHT22;54366;51.980;5.856;2022-08-19T07:43:17;21.20;77.30
67529;DHT22;54366;51.980;5.856;2022-08-19T07:45:48;21.20;76.90
67529;DHT22;54366;51.980;5.856;2022-08-19T07:48:15;21.30;76.50
67529;DHT22;54366;51.980;5.856;2022-08-19T07:50:41;21.30;76.30
67529;DHT22;54366;51.980;5.856;2022-08-19T07:53:07;21.30;76.40
67529;DHT22;54366;51.980;5.856;2022-08-19T07:55:33;21.40;76.50
67529;DHT22;54366;51.980;5.856;2022-08-19T07:58:00;21.40;76.20
67529;DHT22;54366;51.980;5.856;2022-08-19T08:00:26;21.50;76.00
67529;DHT22;54366;51.980;5.856;2022-08-19T08:02:52;21.70;76.00
67529;DHT22;54366;51.980;5.856;2022-08-19T08:05:19;21.80;75.40
67529;DHT22;54366;51.980;5.856;2022-08-19T08:08:04;21.80;75.20
67529;DHT22;54366;51.980;5.856;2022-08-19T08:10:50;21.90;75.10
67529;DHT22;54366;51.980;5.856;2022-08-19T08:13:16;22.00;74.80
67529;DHT22;54366;51.980;5.856;2022-08-19T08:15:42;22.00;74.90
67529;DHT22;54366;51.980;5.856;2022-08-19T08:18:11;22.00;74.60
67529;DHT22;54366;51.980;5.856;2022-08-19T08:20:38;22.00;74.50
67529;DHT22;54366;51.980;5.856;2022-08-19T08:23:04;22.10;74.40
67529;DHT22;54366;51.980;5.856;2022-08-19T08:25:49;22.10;74.20
67529;DHT22;54366;51.980;5.856;2022-08-19T08:28:16;22.20;74.00
67529;DHT22;54366;51.980;5.856;2022-08-19T08:30:43;22.40;74.30
67529;DHT22;54366;51.980;5.856;2022-08-19T08:33:11;22.50;73.20
67529;DHT22;54366;51.980;5.856;2022-08-19T08:35:39;22.70;72.80
67529;DHT22;54366;51.980;5.856;2022-08-19T08:38:07;22.80;71.80
67529;DHT22;54366;51.980;5.856;2022-08-19T08:40:49;23.00;71.50
67529;DHT22;54366;51.980;5.856;2022-08-19T08:46:00;23.30;69.90
67529;DHT22;54366;51.980;5.856;2022-08-19T08:48:40;23.50;67.60
67529;DHT22;54366;51.980;5.856;2022-08-19T08:51:12;23.50;66.80
67529;DHT22;54366;51.980;5.856;2022-08-19T08:53:40;23.60;67.80
67529;DHT22;54366;51.980;5.856;2022-08-19T08:56:09;23.80;67.40
67529;DHT22;54366;51.980;5.856;2022-08-19T08:58:51;23.90;67.30
67529;DHT22;54366;51.980;5.856;2022-08-19T09:01:20;24.00;66.70
67529;DHT22;54366;51.980;5.856;2022-08-19T09:03:46;24.20;66.50
67529;DHT22;54366;51.980;5.856;2022-08-19T09:06:34;24.30;65.90
67529;DHT22;54366;51.980;5.856;2022-08-19T09:09:14;24.50;65.70
67529;DHT22;54366;51.980;5.856;2022-08-19T09:17:14;24.90;63.30
67529;DHT22;54366;51.980;5.856;2022-08-19T09:19:53;25.00;63.30
67529;DHT22;54366;51.980;5.856;2022-08-19T09:22:20;25.10;63.10
67529;DHT22;54366;51.980;5.856;2022-08-19T09:24:49;25.20;62.50
67529;DHT22;54366;51.980;5.856;2022-08-19T09:27:16;25.40;62.20
67529;DHT22;54366;51.980;5.856;2022-08-19T09:29:42;25.40;62.00
67529;DHT22;54366;51.980;5.856;2022-08-19T09:32:08;25.40;61.70
67529;DHT22;54366;51.980;5.856;2022-08-19T09:34:34;25.60;62.00
67529;DHT22;54366;51.980;5.856;2022-08-19T09:37:01;25.60;61.90
67529;DHT22;54366;51.980;5.856;2022-08-19T09:39:28;25.70;62.10
67529;DHT22;54366;51.980;5.856;2022-08-19T09:41:56;25.70;61.10
67529;DHT22;54366;51.980;5.856;2022-08-19T09:44:22;25.60;60.70
67529;DHT22;54366;51.980;5.856;2022-08-19T09:46:49;25.60;60.50
67529;DHT22;54366;51.980;5.856;2022-08-19T09:49:18;25.50;60.60
67529;DHT22;54366;51.980;5.856;2022-08-19T09:51:45;25.60;60.70
67529;DHT22;54366;51.980;5.856;2022-08-19T09:54:15;25.60;60.50
67529;DHT22;54366;51.980;5.856;2022-08-19T09:56:41;25.80;61.10
67529;DHT22;54366;51.980;5.856;2022-08-19T09:59:07;25.90;60.30
67529;DHT22;54366;51.980;5.856;2022-08-19T10:01:33;26.00;60.60
67529;DHT22;54366;51.980;5.856;2022-08-19T10:04:00;26.10;59.10
67529;DHT22;54366;51.980;5.856;2022-08-19T10:06:29;26.20;59.40
67529;DHT22;54366;51.980;5.856;2022-08-19T10:08:59;26.40;58.70
67529;DHT22;54366;51.980;5.856;2022-08-19T10:11:26;26.50;57.40
67529;DHT22;54366;51.980;5.856;2022-08-19T10:13:52;26.60;57.30
67529;DHT22;54366;51.980;5.856;2022-08-19T10:16:21;26.70;56.70
67529;DHT22;54366;51.980;5.856;2022-08-19T10:18:49;26.70;56.60
67529;DHT22;54366;51.980;5.856;2022-08-19T10:21:29;26.70;55.60
67529;DHT22;54366;51.980;5.856;2022-08-19T10:23:59;26.80;56.20
67529;DHT22;54366;51.980;5.856;2022-08-19T10:26:30;27.00;55.30
67529;DHT22;54366;51.980;5.856;2022-08-19T10:28:57;27.10;55.10
67529;DHT22;54366;51.980;5.856;2022-08-19T10:31:27;27.20;54.50
67529;DHT22;54366;51.980;5.856;2022-08-19T10:33:55;27.30;54.50
67529;DHT22;54366;51.980;5.856;2022-08-19T10:36:32;27.40;54.60
67529;DHT22;54366;51.980;5.856;2022-08-19T10:39:02;27.50;54.40
67529;DHT22;54366;51.980;5.856;2022-08-19T10:41:31;27.60;53.60
67529;DHT22;54366;51.980;5.856;2022-08-19T10:44:04;27.60;53.40
67529;DHT22;54366;51.980;5.856;2022-08-19T10:46:32;27.60;53.50
67529;DHT22;54366;51.980;5.856;2022-08-19T10:49:04;27.60;53.00
67529;DHT22;54366;51.980;5.856;2022-08-19T10:51:31;27.60;54.00
67529;DHT22;54366;51.980;5.856;2022-08-19T10:54:17;27.60;53.70
67529;DHT22;54366;51.980;5.856;2022-08-19T10:56:43;27.60;53.70
67529;DHT22;54366;51.980;5.856;2022-08-19T10:59:21;27.60;53.00
67529;DHT22;54366;51.980;5.856;2022-08-19T11:01:48;27.70;52.70
67529;DHT22;54366;51.980;5.856;2022-08-19T11:04:15;27.70;52.20
67529;DHT22;54366;51.980;5.856;2022-08-19T11:06:45;27.70;52.60
67529;DHT22;54366;51.980;5.856;2022-08-19T11:09:22;27.80;52.60
67529;DHT22;54366;51.980;5.856;2022-08-19T11:11:52;27.90;52.50
67529;DHT22;54366;51.980;5.856;2022-08-19T11:14:20;28.00;52.40
67529;DHT22;54366;51.980;5.856;2022-08-19T11:16:48;28.10;51.90
67529;DHT22;54366;51.980;5.856;2022-08-19T11:19:15;28.40;52.30
67529;DHT22;54366;51.980;5.856;2022-08-19T11:21:47;28.50;51.00
67529;DHT22;54366;51.980;5.856;2022-08-19T11:24:18;28.70;51.00
67529;DHT22;54366;51.980;5.856;2022-08-19T11:26:47;28.80;50.20
67529;DHT22;54366;51.980;5.856;2022-08-19T11:29:16;29.00;50.40
67529;DHT22;54366;51.980;5.856;2022-08-19T11:31:45;29.10;50.00
67529;DHT22;54366;51.980;5.856;2022-08-19T11:34:17;29.20;50.00
67529;DHT22;54366;51.980;5.856;2022-08-19T11:36:45;29.40;50.00
67529;DHT22;54366;51.980;5.856;2022-08-19T11:39:14;29.60;49.40
67529;DHT22;54366;51.980;5.856;2022-08-19T11:41:40;29.70;48.80
67529;DHT22;54366;51.980;5.856;2022-08-19T11:44:07;29.80;48.10
67529;DHT22;54366;51.980;5.856;2022-08-19T11:46:35;29.90;47.60
67529;DHT22;54366;51.980;5.856;2022-08-19T11:49:02;30.10;48.30
67529;DHT22;54366;51.980;5.856;2022-08-19T11:51:30;30.20;47.70
67529;DHT22;54366;51.980;5.856;2022-08-19T11:53:58;30.20;47.40
67529;DHT22;54366;51.980;5.856;2022-08-19T11:56:25;30.30;47.10
67529;DHT22;54366;51.980;5.856;2022-08-19T11:58:53;30.30;46.10
67529;DHT22;54366;51.980;5.856;2022-08-19T12:01:21;30.40;46.30
67529;DHT22;54366;51.980;5.856;2022-08-19T12:03:49;30.40;46.20
67529;DHT22;54366;51.980;5.856;2022-08-19T12:06:19;30.50;46.40
67529;DHT22;54366;51.980;5.856;2022-08-19T12:08:49;30.40;46.20
67529;DHT22;54366;51.980;5.856;2022-08-19T12:11:15;30.50;46.40
67529;DHT22;54366;51.980;5.856;2022-08-19T12:13:42;30.60;46.70
67529;DHT22;54366;51.980;5.856;2022-08-19T12:16:15;30.60;46.20
67529;DHT22;54366;51.980;5.856;2022-08-19T12:18:42;30.70;46.20
67529;DHT22;54366;51.980;5.856;2022-08-19T12:21:20;30.90;45.60
67529;DHT22;54366;51.980;5.856;2022-08-19T12:23:49;31.00;45.50
67529;DHT22;54366;51.980;5.856;2022-08-19T12:26:16;31.00;45.70
67529;DHT22;54366;51.980;5.856;2022-08-19T12:28:43;30.90;45.50
67529;DHT22;54366;51.980;5.856;2022-08-19T12:31:10;31.00;45.40
67529;DHT22;54366;51.980;5.856;2022-08-19T12:33:40;30.90;46.10
67529;DHT22;54366;51.980;5.856;2022-08-19T12:36:09;31.00;45.70
67529;DHT22;54366;51.980;5.856;2022-08-19T12:38:37;31.00;46.20
67529;DHT22;54366;51.980;5.856;2022-08-19T12:41:05;31.00;45.60
67529;DHT22;54366;51.980;5.856;2022-08-19T12:43:33;31.00;46.00
67529;DHT22;54366;51.980;5.856;2022-08-19T12:46:01;30.90;46.00
67529;DHT22;54366;51.980;5.856;2022-08-19T12:48:28;31.00;46.20
67529;DHT22;54366;51.980;5.856;2022-08-19T12:50:55;30.90;46.10
67529;DHT22;54366;51.980;5.856;2022-08-19T12:53:21;30.90;46.20
67529;DHT22;54366;51.980;5.856;2022-08-19T12:55:47;30.70;46.20
67529;DHT22;54366;51.980;5.856;2022-08-19T12:58:13;30.70;46.30
67529;DHT22;54366;51.980;5.856;2022-08-19T13:00:40;30.70;46.40
67529;DHT22;54366;51.980;5.856;2022-08-19T13:03:06;30.80;46.30
67529;DHT22;54366;51.980;5.856;2022-08-19T13:05:33;30.80;46.00
67529;DHT22;54366;51.980;5.856;2022-08-19T13:08:00;30.80;46.30
67529;DHT22;54366;51.980;5.856;2022-08-19T13:10:30;30.70;45.90
67529;DHT22;54366;51.980;5.856;2022-08-19T13:13:03;30.70;46.50
67529;DHT22;54366;51.980;5.856;2022-08-19T13:15:33;30.60;46.50
67529;DHT22;54366;51.980;5.856;2022-08-19T13:18:00;30.70;46.70
67529;DHT22;54366;51.980;5.856;2022-08-19T13:20:27;30.80;47.00
67529;DHT22;54366;51.980;5.856;2022-08-19T13:22:54;31.00;46.70
67529;DHT22;54366;51.980;5.856;2022-08-19T13:25:20;31.10;46.40
67529;DHT22;54366;51.980;5.856;2022-08-19T13:27:48;31.10;45.20
67529;DHT22;54366;51.980;5.856;2022-08-19T13:30:16;31.10;45.20
67529;DHT22;54366;51.980;5.856;2022-08-19T13:33:01;31.10;45.50
67529;DHT22;54366;51.980;5.856;2022-08-19T13:35:41;31.00;44.90
67529;DHT22;54366;51.980;5.856;2022-08-19T13:38:08;30.90;45.70
67529;DHT22;54366;51.980;5.856;2022-08-19T13:40:34;30.90;45.90
67529;DHT22;54366;51.980;5.856;2022-08-19T13:43:02;30.90;46.00
67529;DHT22;54366;51.980;5.856;2022-08-19T13:45:30;30.90;45.50
67529;DHT22;54366;51.980;5.856;2022-08-19T13:48:01;30.80;46.10
67529;DHT22;54366;51.980;5.856;2022-08-19T13:50:31;30.80;46.30
67529;DHT22;54366;51.980;5.856;2022-08-19T13:52:57;30.70;45.90
67529;DHT22;54366;51.980;5.856;2022-08-19T13:55:24;30.70;46.80
67529;DHT22;54366;51.980;5.856;2022-08-19T13:57:55;30.60;47.00
67529;DHT22;54366;51.980;5.856;2022-08-19T14:00:23;30.60;46.80
67529;DHT22;54366;51.980;5.856;2022-08-19T14:02:54;30.40;47.00
67529;DHT22;54366;51.980;5.856;2022-08-19T14:05:22;30.40;47.40
67529;DHT22;54366;51.980;5.856;2022-08-19T14:07:49;30.30;47.60
67529;DHT22;54366;51.980;5.856;2022-08-19T14:10:16;30.20;47.70
67529;DHT22;54366;51.980;5.856;2022-08-19T14:12:42;30.10;47.80
67529;DHT22;54366;51.980;5.856;2022-08-19T14:15:10;30.00;48.00
67529;DHT22;54366;51.980;5.856;2022-08-19T14:17:42;29.90;48.20
67529;DHT22;54366;51.980;5.856;2022-08-19T14:20:09;29.80;48.60
67529;DHT22;54366;51.980;5.856;2022-08-19T14:22:38;29.70;49.00
67529;DHT22;54366;51.980;5.856;2022-08-19T14:25:11;29.60;49.20
67529;DHT22;54366;51.980;5.856;2022-08-19T14:27:39;29.50;49.00
67529;DHT22;54366;51.980;5.856;2022-08-19T14:30:08;29.40;49.60
67529;DHT22;54366;51.980;5.856;2022-08-19T14:32:35;29.30;49.90
67529;DHT22;54366;51.980;5.856;2022-08-19T14:35:02;29.20;50.30
67529;DHT22;54366;51.980;5.856;2022-08-19T14:37:29;29.20;50.30
67529;DHT22;54366;51.980;5.856;2022-08-19T14:39:55;29.20;50.40
67529;DHT22;54366;51.980;5.856;2022-08-19T14:42:22;29.10;50.70
67529;DHT22;54366;51.980;5.856;2022-08-19T14:44:48;29.00;50.70
67529;DHT22;54366;51.980;5.856;2022-08-19T14:47:14;28.90;51.20
67529;DHT22;54366;51.980;5.856;2022-08-19T14:49:40;28.90;51.20
67529;DHT22;54366;51.980;5.856;2022-08-19T14:52:06;28.90;51.40
67529;DHT22;54366;51.980;5.856;2022-08-19T14:54:33;28.90;51.50
67529;DHT22;54366;51.980;5.856;2022-08-19T14:56:59;28.80;51.40
67529;DHT22;54366;51.980;5.856;2022-08-19T14:59:25;28.70;51.40
67529;DHT22;54366;51.980;5.856;2022-08-19T15:01:51;28.70;51.70
67529;DHT22;54366;51.980;5.856;2022-08-19T15:04:18;28.70;52.00
67529;DHT22;54366;51.980;5.856;2022-08-19T15:06:44;28.60;52.60
67529;DHT22;54366;51.980;5.856;2022-08-19T15:09:11;28.50;51.70
67529;DHT22;54366;51.980;5.856;2022-08-19T15:11:37;28.50;51.90
67529;DHT22;54366;51.980;5.856;2022-08-19T15:14:04;28.40;52.00
67529;DHT22;54366;51.980;5.856;2022-08-19T15:16:32;28.40;52.10
67529;DHT22;54366;51.980;5.856;2022-08-19T15:18:58;28.30;52.80
67529;DHT22;54366;51.980;5.856;2022-08-19T15:21:26;28.20;53.20
67529;DHT22;54366;51.980;5.856;2022-08-19T15:23:54;28.10;54.30
67529;DHT22;54366;51.980;5.856;2022-08-19T15:26:21;27.80;55.00
67529;DHT22;54366;51.980;5.856;2022-08-19T15:28:47;27.50;56.00
67529;DHT22;54366;51.980;5.856;2022-08-19T15:31:20;27.30;56.70
67529;DHT22;54366;51.980;5.856;2022-08-19T15:33:48;27.10;57.80
67529;DHT22;54366;51.980;5.856;2022-08-19T15:36:15;26.80;58.10
67529;DHT22;54366;51.980;5.856;2022-08-19T15:38:41;26.70;58.90
67529;DHT22;54366;51.980;5.856;2022-08-19T15:41:17;26.60;59.10
67529;DHT22;54366;51.980;5.856;2022-08-19T15:44:02;26.50;59.40
67529;DHT22;54366;51.980;5.856;2022-08-19T15:46:32;26.50;59.60
67529;DHT22;54366;51.980;5.856;2022-08-19T15:48:59;26.50;59.40
67529;DHT22;54366;51.980;5.856;2022-08-19T15:51:30;26.40;59.20
67529;DHT22;54366;51.980;5.856;2022-08-19T15:53:58;26.40;59.50